aviador You're here:

RCTP Decoded Metar

TAIPEI in TAIWAN
Report Time2018-06-17 21:30:00
UTC Time2018-06-17 21:54:03
Flight Rules vfr VFR
Wind110° at 03 kt
W.Decomp.*RWY 05: 1.3 kt HW 2.7 kt RCW
W.Rank110° ranks 27
Current wind is below 110° avg. (7.7)
Visibility9999 m
Phenomena:N/A
Clouds:Few 012 Hf
Broken 040 Hf
Broken 180 Hf
Ceiling4,000 ft
Temp26°C (ISA +11)
Dew Point26°C (100% RH)
QNH1004 hPa
Density Alt2,149 ft
Elevation108 ft
Report Wrong Elevation
Raw Report
METAR RCTP 172130Z 11003KT 9999 FEW012 BKN040 BKN180 26/26 Q1004 NOSIG
RMK A2966=

Extra information for RCTP:More info

Metar Taf Metar & Taf Last 4 Metars F.Rules Stats Wind Profile Meteogram Temp Stats Airport Information Weather charts Add Link Nearby VenuesMetar ALERT Operation Metar Decoded Social comments